createdAt,value
2018-09-03T00:01:29.666Z,67.40
2018-09-03T00:03:57.903Z,68.10
2018-09-03T00:06:26.090Z,67.80
2018-09-03T00:08:54.259Z,67.90
2018-09-03T00:11:22.591Z,68.20
2018-09-03T00:13:50.762Z,68.00
2018-09-03T00:16:19.070Z,68.20
2018-09-03T00:18:47.387Z,68.20
2018-09-03T00:21:15.684Z,68.60
2018-09-03T00:23:43.866Z,68.90
2018-09-03T00:26:12.056Z,68.70
2018-09-03T00:28:40.471Z,68.00
2018-09-03T00:31:13.982Z,68.50
2018-09-03T00:33:47.659Z,68.80
2018-09-03T00:38:27.840Z,68.40
2018-09-03T00:41:01.451Z,69.10
2018-09-03T00:43:34.866Z,69.20
2018-09-03T00:46:08.411Z,68.90
2018-09-03T00:48:36.595Z,69.20
2018-09-03T00:51:04.922Z,69.30
2018-09-03T00:53:33.096Z,68.90
2018-09-03T00:56:01.271Z,69.30
2018-09-03T00:58:29.454Z,69.90
2018-09-03T01:00:57.664Z,68.90
2018-09-03T01:03:25.840Z,70.30
2018-09-03T01:05:54.013Z,70.20
2018-09-03T01:08:22.217Z,70.00
2018-09-03T01:10:50.390Z,70.20
2018-09-03T01:13:18.581Z,69.80
2018-09-03T01:15:46.757Z,69.70
2018-09-03T01:18:14.939Z,70.10
2018-09-03T01:20:43.112Z,70.00
2018-09-03T01:23:11.304Z,70.10
2018-09-03T01:25:39.472Z,69.80
2018-09-03T01:28:07.664Z,69.90
2018-09-03T01:30:35.848Z,70.00
2018-09-03T01:33:04.026Z,69.70
2018-09-03T01:35:32.199Z,70.10
2018-09-03T01:38:00.378Z,70.10
2018-09-03T01:40:28.586Z,69.90
2018-09-03T01:42:56.803Z,70.10
2018-09-03T01:45:24.980Z,70.40
2018-09-03T01:47:53.162Z,70.00
2018-09-03T01:50:21.347Z,70.70
2018-09-03T01:52:49.539Z,70.00
2018-09-03T01:55:17.738Z,70.20
2018-09-03T01:57:45.887Z,70.70
2018-09-03T02:00:14.081Z,71.20
2018-09-03T02:02:42.899Z,70.50
2018-09-03T02:05:11.069Z,70.70
2018-09-03T02:07:39.252Z,70.70
2018-09-03T02:10:07.422Z,70.90
2018-09-03T02:12:35.594Z,70.80
2018-09-03T02:15:03.766Z,70.90
2018-09-03T02:17:31.947Z,70.30
2018-09-03T02:20:00.169Z,70.80
2018-09-03T02:22:28.346Z,71.00
2018-09-03T02:24:56.522Z,70.90
2018-09-03T02:27:24.728Z,71.40
2018-09-03T02:29:52.906Z,71.30
2018-09-03T02:32:21.102Z,70.90
2018-09-03T02:34:49.286Z,71.50
2018-09-03T02:37:17.465Z,71.90
2018-09-03T02:39:45.644Z,71.90
2018-09-03T02:42:13.822Z,72.30
2018-09-03T02:44:42.011Z,72.30
2018-09-03T02:47:10.188Z,72.60
2018-09-03T02:49:38.379Z,72.50
2018-09-03T02:52:06.555Z,72.60
2018-09-03T02:54:34.762Z,72.80
2018-09-03T02:57:02.943Z,73.00
2018-09-03T02:59:31.138Z,72.90
2018-09-03T03:01:59.295Z,73.10
2018-09-03T03:04:27.484Z,73.40
2018-09-03T03:06:55.634Z,72.80
2018-09-03T03:09:23.827Z,72.70
2018-09-03T03:11:52.003Z,73.10
2018-09-03T03:14:20.171Z,73.10
2018-09-03T03:16:48.334Z,73.30
2018-09-03T03:19:16.518Z,73.40
2018-09-03T03:21:44.741Z,73.40
2018-09-03T03:24:12.910Z,73.40
2018-09-03T03:26:41.075Z,73.80
2018-09-03T03:29:09.430Z,73.80
2018-09-03T03:31:37.587Z,73.70
2018-09-03T03:34:06.130Z,74.00
2018-09-03T03:36:34.319Z,73.90
2018-09-03T03:39:02.651Z,73.90
2018-09-03T03:41:30.837Z,73.90
2018-09-03T03:43:59.019Z,74.00
2018-09-03T03:46:27.194Z,73.90
2018-09-03T03:48:55.362Z,74.30
2018-09-03T03:51:23.543Z,74.50
2018-09-03T03:53:51.740Z,74.70
2018-09-03T03:56:19.926Z,74.50
2018-09-03T03:58:48.137Z,74.50
2018-09-03T04:01:16.302Z,74.50
2018-09-03T04:03:44.506Z,74.80
2018-09-03T04:06:12.722Z,74.70
2018-09-03T04:08:40.894Z,74.70
2018-09-03T04:11:09.087Z,75.00
2018-09-03T04:13:37.250Z,74.40
2018-09-03T04:16:05.603Z,74.50
2018-09-03T04:30:44.183Z,74.40
2018-09-03T04:33:12.363Z,74.80
2018-09-03T04:35:40.547Z,74.40
2018-09-03T04:38:08.727Z,74.50
2018-09-03T04:40:36.917Z,74.70
2018-09-03T04:43:05.091Z,75.00
2018-09-03T04:45:33.298Z,75.30
2018-09-03T04:48:01.515Z,75.30
2018-09-03T04:50:29.666Z,75.40
2018-09-03T04:52:57.850Z,75.40
2018-09-03T04:55:26.100Z,75.30
2018-09-03T04:57:54.263Z,75.70
2018-09-03T05:00:22.463Z,75.70
2018-09-03T05:02:50.661Z,75.80
2018-09-03T05:05:18.883Z,75.80
2018-09-03T05:07:47.034Z,76.10
2018-09-03T05:10:15.226Z,76.30
2018-09-03T05:12:44.105Z,76.30
2018-09-03T05:15:12.270Z,76.40
2018-09-03T05:17:40.447Z,76.40
2018-09-03T05:20:08.709Z,76.40
2018-09-03T05:22:36.882Z,76.50
2018-09-03T05:25:05.259Z,76.90
2018-09-03T05:27:33.458Z,77.00
2018-09-03T05:30:01.626Z,77.00
2018-09-03T05:32:29.806Z,77.10
2018-09-03T05:34:57.992Z,76.90
2018-09-03T05:37:26.174Z,76.80
2018-09-03T05:39:54.355Z,77.60
2018-09-03T05:42:22.538Z,77.30
2018-09-03T05:44:51.746Z,77.00
2018-09-03T05:47:19.934Z,78.00
2018-09-03T05:49:48.136Z,77.80
2018-09-03T05:52:16.331Z,78.00
2018-09-03T05:54:44.515Z,78.00
2018-09-03T05:57:12.714Z,78.20
2018-09-03T05:59:40.896Z,78.40
2018-09-03T06:02:09.092Z,78.50
2018-09-03T06:04:37.271Z,77.70
2018-09-03T06:07:05.605Z,77.60
2018-09-03T06:09:33.783Z,78.60
2018-09-03T06:12:01.975Z,78.50
2018-09-03T06:14:30.163Z,78.40
2018-09-03T11:40:34.728Z,64.50
2018-09-03T11:43:03.484Z,64.80
2018-09-03T11:45:31.688Z,65.10
2018-09-03T11:47:59.910Z,65.30
2018-09-03T11:50:28.088Z,65.40
2018-09-03T11:52:56.270Z,64.90
2018-09-03T11:55:24.463Z,65.20
2018-09-03T11:57:52.651Z,64.90
2018-09-03T12:00:23.231Z,64.70
2018-09-03T12:02:51.411Z,65.00
2018-09-03T12:05:20.243Z,65.70
2018-09-03T12:07:48.431Z,64.50
2018-09-03T12:10:17.280Z,65.20
2018-09-03T12:12:45.459Z,65.00
2018-09-03T12:15:19.104Z,65.40
2018-09-03T12:17:47.283Z,66.10
2018-09-03T12:20:15.467Z,65.80
2018-09-03T12:22:43.662Z,65.40
2018-09-03T12:25:12.624Z,65.50
2018-09-03T12:27:40.836Z,65.70
2018-09-03T15:08:50.762Z,66.40
2018-09-03T15:11:18.998Z,66.50
2018-09-03T15:13:50.317Z,66.60
2018-09-03T15:16:21.675Z,66.50
2018-09-03T15:18:49.871Z,66.60
2018-09-03T15:21:18.055Z,66.80
2018-09-03T15:23:46.256Z,66.60
2018-09-03T15:26:14.472Z,66.70
2018-09-03T15:28:42.620Z,66.80
2018-09-03T15:31:10.797Z,67.00
2018-09-03T15:33:39.024Z,67.20
2018-09-03T15:36:07.266Z,67.00
2018-09-03T15:38:35.428Z,67.00
2018-09-03T15:41:03.632Z,67.10
2018-09-03T15:43:31.845Z,67.10
2018-09-03T15:46:00.125Z,67.20
2018-09-03T15:48:28.431Z,66.90
2018-09-03T15:50:56.563Z,67.40
2018-09-03T15:53:25.486Z,67.60
2018-09-03T15:55:53.702Z,67.60
2018-09-03T15:58:21.917Z,67.50
2018-09-03T16:00:50.092Z,67.50
2018-09-03T16:03:25.827Z,67.50
2018-09-03T16:05:54.099Z,67.60
2018-09-03T16:08:23.196Z,67.50
2018-09-03T16:10:51.430Z,67.30
2018-09-03T16:13:19.618Z,67.60
2018-09-03T16:15:48.972Z,67.50
2018-09-03T16:18:17.172Z,67.60
2018-09-03T16:20:45.616Z,67.70
2018-09-03T16:23:13.794Z,67.80
2018-09-03T16:25:41.965Z,68.00
2018-09-03T16:28:10.162Z,67.80
2018-09-03T16:30:38.470Z,67.90
2018-09-03T16:33:07.127Z,67.80
2018-09-03T16:35:35.391Z,68.10
2018-09-03T16:38:03.623Z,68.00
2018-09-03T16:40:31.830Z,68.20
2018-09-03T16:43:00.040Z,68.20
2018-09-03T16:45:28.212Z,68.20
2018-09-03T16:47:56.394Z,68.10
2018-09-03T16:50:24.868Z,68.30
2018-09-03T16:52:53.072Z,68.50
2018-09-03T16:55:21.338Z,68.40
2018-09-03T16:57:49.454Z,68.70
2018-09-03T17:00:17.870Z,68.80
2018-09-03T17:02:46.054Z,69.10
2018-09-03T17:05:14.263Z,69.20
2018-09-03T17:07:43.336Z,69.40
2018-09-03T17:10:11.358Z,69.30
2018-09-03T17:12:39.643Z,69.30
2018-09-03T17:15:08.380Z,69.30
2018-09-03T17:17:36.724Z,69.40
2018-09-03T17:20:05.514Z,69.50
2018-09-03T17:22:33.782Z,69.60
2018-09-03T17:25:01.982Z,69.80
2018-09-03T17:27:30.371Z,70.10
2018-09-03T17:29:58.574Z,70.10
2018-09-03T17:32:26.748Z,70.30
2018-09-03T17:34:55.115Z,71.10
2018-09-03T17:37:23.342Z,70.40
2018-09-03T17:39:52.442Z,70.30
2018-09-03T17:42:21.875Z,70.40
2018-09-03T17:44:50.183Z,70.60
2018-09-03T17:47:18.549Z,71.00
2018-09-03T17:49:46.844Z,71.10
2018-09-03T17:52:16.049Z,71.30
2018-09-03T17:54:44.862Z,72.00
2018-09-03T17:57:13.034Z,71.50
2018-09-03T17:59:41.268Z,71.60
2018-09-03T18:02:09.527Z,71.70
2018-09-03T18:04:37.743Z,71.90
2018-09-03T18:07:06.219Z,71.80
2018-09-03T18:09:34.651Z,72.30
2018-09-03T18:12:02.891Z,72.50
2018-09-03T18:14:31.108Z,72.40
2018-09-03T18:16:59.332Z,72.30
2018-09-03T18:19:27.523Z,72.60
2018-09-03T18:21:55.742Z,72.70
2018-09-03T18:24:23.931Z,73.00
2018-09-03T18:26:52.199Z,73.20
2018-09-03T18:29:20.436Z,73.30
2018-09-03T18:31:48.652Z,73.60
2018-09-03T18:34:16.930Z,73.60
2018-09-03T18:36:45.126Z,73.80
2018-09-03T18:39:13.316Z,73.90
2018-09-03T18:41:41.494Z,74.10
2018-09-03T18:44:10.331Z,74.20
2018-09-03T18:46:38.551Z,74.40
2018-09-03T18:49:06.752Z,74.50
2018-09-03T18:51:34.919Z,74.70
2018-09-03T18:54:03.106Z,74.80
2018-09-03T18:56:31.279Z,75.00
2018-09-03T18:58:59.581Z,74.80
2018-09-03T19:01:27.842Z,75.00
2018-09-03T19:03:56.093Z,75.40
2018-09-03T19:06:24.277Z,75.40
2018-09-03T19:08:53.650Z,75.50
2018-09-03T19:11:21.835Z,75.60
2018-09-03T19:13:50.022Z,75.80
2018-09-03T19:16:18.195Z,75.80
2018-09-03T19:18:47.366Z,76.00
2018-09-03T19:21:15.546Z,76.10
2018-09-03T19:23:43.727Z,76.60
2018-09-03T19:26:11.927Z,76.60
2018-09-03T19:28:40.135Z,76.90
2018-09-03T19:31:08.403Z,76.60
2018-09-03T19:33:36.586Z,77.20
2018-09-03T19:36:04.858Z,77.50
2018-09-03T19:38:33.048Z,77.80
2018-09-03T19:41:07.887Z,77.50
2018-09-03T19:43:36.102Z,77.30
2018-09-03T19:46:04.300Z,77.40
2018-09-03T19:48:32.502Z,77.90
2018-09-03T19:51:00.683Z,78.10
2018-09-03T19:53:28.932Z,78.50
2018-09-03T19:55:57.054Z,78.30
2018-09-03T19:58:25.750Z,77.80
2018-09-03T20:00:53.963Z,77.70
2018-09-03T20:03:22.183Z,77.70
2018-09-03T20:05:50.486Z,78.10
2018-09-03T20:08:18.700Z,79.00
2018-09-03T20:10:46.836Z,79.00
2018-09-03T20:13:15.018Z,78.90
2018-09-03T20:15:43.212Z,79.40
2018-09-03T20:18:11.400Z,79.50
2018-09-03T20:20:39.591Z,79.40
2018-09-03T20:23:07.933Z,79.50
2018-09-03T20:25:36.082Z,79.60
2018-09-03T20:28:04.273Z,79.60
2018-09-03T20:30:32.516Z,79.50
2018-09-03T20:33:00.715Z,79.80
2018-09-03T20:35:28.920Z,79.80
2018-09-03T20:37:57.105Z,79.70
2018-09-03T20:40:25.299Z,79.90
2018-09-03T20:43:00.192Z,80.00
2018-09-03T20:45:28.334Z,80.20
2018-09-03T20:47:56.534Z,80.30
2018-09-03T20:50:24.718Z,80.30
2018-09-03T20:52:52.912Z,80.60
2018-09-03T20:55:21.107Z,80.70
2018-09-03T20:57:49.284Z,80.40
2018-09-03T21:00:17.479Z,80.80
2018-09-03T21:02:45.811Z,80.70
2018-09-03T21:05:14.024Z,80.40
2018-09-03T21:07:42.218Z,81.00
2018-09-03T21:10:10.436Z,81.10
2018-09-03T21:12:38.624Z,80.80
2018-09-03T21:15:06.835Z,80.70
2018-09-03T21:17:35.024Z,80.70
2018-09-03T21:20:03.257Z,80.80
2018-09-03T21:22:31.445Z,80.60
2018-09-03T21:24:59.652Z,80.50
2018-09-03T21:27:27.852Z,80.90
2018-09-03T21:29:56.043Z,81.00
2018-09-03T21:32:24.248Z,81.30
2018-09-03T21:34:52.654Z,80.60
2018-09-03T21:37:21.035Z,80.30
2018-09-03T21:39:49.221Z,80.60
2018-09-03T21:42:17.422Z,80.70
2018-09-03T21:44:45.607Z,80.90
2018-09-03T21:47:13.808Z,80.80
2018-09-03T21:49:42.004Z,80.80
2018-09-03T21:52:10.183Z,80.70
2018-09-03T21:54:38.358Z,80.70
2018-09-03T21:57:07.324Z,80.60
2018-09-03T21:59:35.532Z,80.70
2018-09-03T22:02:05.336Z,80.20
2018-09-03T22:04:33.528Z,81.20
2018-09-03T22:07:01.736Z,80.50
2018-09-03T22:09:29.935Z,80.80
2018-09-03T22:11:58.136Z,80.40
2018-09-03T22:14:26.328Z,80.40
2018-09-03T22:16:54.550Z,80.50
2018-09-03T22:19:22.731Z,80.40
2018-09-03T22:21:50.943Z,80.20
2018-09-03T22:24:19.113Z,80.70
2018-09-03T22:26:47.321Z,80.80
2018-09-03T22:29:15.528Z,81.10
2018-09-03T22:31:43.747Z,81.50
2018-09-03T22:34:12.091Z,81.40
2018-09-03T22:36:40.587Z,81.60
2018-09-03T22:39:09.060Z,82.00
2018-09-03T22:41:37.253Z,82.50
2018-09-03T22:44:05.791Z,82.00
2018-09-03T22:46:33.987Z,82.20
2018-09-03T22:49:02.210Z,82.20
2018-09-03T22:51:30.404Z,82.50
2018-09-03T22:53:58.612Z,82.30
2018-09-03T22:56:26.910Z,82.70
2018-09-03T22:58:55.287Z,82.80
2018-09-03T23:01:23.503Z,82.60
2018-09-03T23:03:51.752Z,82.70
2018-09-03T23:06:19.991Z,82.50
2018-09-03T23:08:48.148Z,82.10
2018-09-03T23:11:16.455Z,82.30
2018-09-03T23:13:44.563Z,82.50
2018-09-03T23:16:12.764Z,82.50
2018-09-03T23:18:40.948Z,82.10
2018-09-03T23:21:09.248Z,81.90
2018-09-03T23:23:37.436Z,82.10
2018-09-03T23:26:06.635Z,81.80
2018-09-03T23:28:34.825Z,81.90
2018-09-03T23:31:03.032Z,82.10
2018-09-03T23:33:31.231Z,82.10
2018-09-03T23:35:59.439Z,82.50
2018-09-03T23:38:27.643Z,81.90
2018-09-03T23:40:55.831Z,82.20
2018-09-03T23:43:24.015Z,82.30
2018-09-03T23:45:52.200Z,82.20
2018-09-03T23:48:20.404Z,82.40
2018-09-03T23:50:48.588Z,81.90
2018-09-03T23:53:16.782Z,82.20
2018-09-03T23:55:44.963Z,82.30
2018-09-03T23:58:13.142Z,82.50
